Time;durP1;ratioP1;P1;durP2;ratioP2;P2;SDS_P1;SDS_P2;PMS_P1;PMS_P2;Temp;Humidity;BMP_temperature;BMP_pressure;BME280_temperature;BME280_humidity;BME280_pressure;Samples;Min_cycle;Max_cycle;Signal;HPM_P1;HPM_P2
2022/07/27 00:04:00;;;;;;;124.53;51.25;;;14.20;99.90;;;;;;10009774;29;20109;-82
2022/07/27 00:09:01;;;;;;;90.05;42.90;;;14.20;99.90;;;;;;9993774;29;20475;-81
2022/07/27 00:14:02;;;;;;;100.15;42.20;;;14.20;99.90;;;;;;10005456;29;20038;-81
2022/07/27 00:19:02;;;;;;;108.15;47.60;;;14.20;99.90;;;;;;10009806;29;20145;-81
2022/07/27 00:24:03;;;;;;;139.63;51.80;;;14.20;99.90;;;;;;10010678;29;20033;-81
2022/07/27 00:29:04;;;;;;;68.90;34.95;;;14.20;99.90;;;;;;10009613;29;20398;-82
2022/07/27 00:34:04;;;;;;;116.35;48.50;;;14.20;99.90;;;;;;10010616;29;20049;-81
2022/07/27 00:39:05;;;;;;;71.05;34.65;;;14.10;99.90;;;;;;10010155;29;20050;-81
2022/07/27 00:44:05;;;;;;;169.45;56.28;;;14.10;99.90;;;;;;10011931;29;20062;-81
2022/07/27 00:49:06;;;;;;;83.13;39.13;;;14.10;99.90;;;;;;10017389;29;20109;-81
2022/07/27 00:54:07;;;;;;;131.30;48.13;;;14.10;99.90;;;;;;10017114;29;20049;-80
2022/07/27 00:59:10;;;;;;;102.05;43.92;;;14.10;99.90;;;;;;10014397;29;20190;-81
2022/07/27 01:04:10;;;;;;;139.40;49.78;;;14.00;99.90;;;;;;10016873;29;20034;-81
2022/07/27 01:14:30;;;;;;;108.95;48.28;;;13.90;99.90;;;;;;10012245;29;20057;-82
2022/07/27 01:19:32;;;;;;;145.52;55.42;;;13.80;99.90;;;;;;10016476;29;20058;-80
2022/07/27 01:24:33;;;;;;;151.38;59.65;;;13.80;99.90;;;;;;10013484;29;20174;-80
2022/07/27 01:29:35;;;;;;;168.43;67.60;;;13.80;99.90;;;;;;10014232;29;20134;-81
2022/07/27 01:34:36;;;;;;;98.15;45.58;;;13.80;99.90;;;;;;10015193;29;20053;-80
2022/07/27 01:39:37;;;;;;;161.98;64.65;;;13.90;99.90;;;;;;10013028;29;20065;-82
2022/07/27 01:44:37;;;;;;;121.28;57.53;;;13.90;99.90;;;;;;10012694;29;20050;-81
2022/07/27 01:49:38;;;;;;;159.00;65.70;;;13.90;99.90;;;;;;10015241;29;20391;-81
2022/07/27 01:54:38;;;;;;;198.52;71.38;;;13.90;99.90;;;;;;10012493;29;20145;-80
2022/07/27 01:59:39;;;;;;;127.88;61.47;;;13.90;99.90;;;;;;10010233;29;20106;-82
2022/07/27 02:04:39;;;;;;;97.75;47.83;;;13.80;99.90;;;;;;10014292;29;20522;-81
2022/07/27 02:09:40;;;;;;;81.60;42.97;;;13.80;99.90;;;;;;10010109;29;20090;-81
2022/07/27 02:14:41;;;;;;;164.15;59.80;;;13.80;99.90;;;;;;10015187;29;20166;-81
2022/07/27 02:19:41;;;;;;;115.28;51.42;;;13.70;99.90;;;;;;10013570;29;20038;-80
2022/07/27 02:24:42;;;;;;;93.25;45.95;;;13.70;99.90;;;;;;10013516;29;20546;-81
2022/07/27 02:29:43;;;;;;;96.45;44.22;;;13.90;99.90;;;;;;10013311;29;20109;-81
2022/07/27 02:34:43;;;;;;;120.82;50.72;;;13.90;99.90;;;;;;10013207;29;20057;-81
2022/07/27 02:39:44;;;;;;;137.18;55.10;;;14.00;99.90;;;;;;10012547;29;20696;-81
2022/07/27 02:44:45;;;;;;;101.50;46.78;;;14.10;99.90;;;;;;10012895;29;20486;-80
2022/07/27 02:49:45;;;;;;;72.97;38.95;;;14.00;99.90;;;;;;9996046;29;20065;-81
2022/07/27 02:54:46;;;;;;;118.28;49.65;;;14.00;99.90;;;;;;10010352;29;20038;-81
2022/07/27 02:59:46;;;;;;;78.65;36.47;;;13.80;99.90;;;;;;10012041;29;20048;-81
2022/07/27 03:04:47;;;;;;;123.95;48.10;;;13.80;99.90;;;;;;10006708;29;20032;-81
2022/07/27 03:09:47;;;;;;;80.78;38.85;;;13.80;99.90;;;;;;10011600;29;20086;-83
2022/07/27 03:14:48;;;;;;;97.43;42.50;;;13.70;99.90;;;;;;10008796;29;20720;-81
2022/07/27 03:19:48;;;;;;;63.85;34.03;;;13.80;99.90;;;;;;10010752;29;20053;-82
2022/07/27 03:24:49;;;;;;;83.38;39.40;;;13.80;99.90;;;;;;10017443;29;20021;-83
2022/07/27 03:29:50;;;;;;;79.15;39.53;;;13.90;99.90;;;;;;10009032;29;20462;-83
2022/07/27 03:34:51;;;;;;;90.25;41.35;;;13.90;99.90;;;;;;10017419;29;20078;-83
2022/07/27 03:39:51;;;;;;;57.63;32.55;;;14.00;99.90;;;;;;10015925;29;20582;-83
2022/07/27 03:44:52;;;;;;;57.10;29.55;;;14.10;99.90;;;;;;10014155;29;20058;-82
2022/07/27 03:49:53;;;;;;;45.47;27.15;;;14.30;99.90;;;;;;9994271;29;20038;-83
2022/07/27 03:54:54;;;;;;;38.92;24.67;;;14.40;99.90;;;;;;10003904;29;20068;-80
2022/07/27 03:59:54;;;;;;;38.22;24.75;;;14.60;99.90;;;;;;10009902;29;20049;-81
2022/07/27 04:04:55;;;;;;;33.63;21.27;;;14.70;99.90;;;;;;9992632;29;20038;-82
2022/07/27 04:09:55;;;;;;;38.08;22.75;;;14.80;99.90;;;;;;10007265;29;20065;-84
2022/07/27 04:14:56;;;;;;;32.88;20.90;;;14.90;99.90;;;;;;10005683;29;20117;-81
2022/07/27 04:19:56;;;;;;;35.60;21.20;;;14.90;99.90;;;;;;10008046;29;20095;-81
2022/07/27 04:24:57;;;;;;;32.83;20.33;;;15.00;99.90;;;;;;10006008;29;20045;-83
2022/07/27 04:29:57;;;;;;;31.83;19.92;;;15.10;99.90;;;;;;10007933;29;20474;-82
2022/07/27 04:34:58;;;;;;;28.35;18.23;;;15.10;99.90;;;;;;10002574;29;20038;-82
2022/07/27 04:39:59;;;;;;;27.85;19.30;;;15.20;99.90;;;;;;10000091;29;20513;-82
2022/07/27 04:45:00;;;;;;;28.13;18.05;;;15.30;99.90;;;;;;10010731;29;20082;-82
2022/07/27 04:50:01;;;;;;;30.65;19.77;;;15.40;99.90;;;;;;9991779;29;20724;-82
2022/07/27 04:55:01;;;;;;;25.17;17.42;;;15.70;99.90;;;;;;10009515;29;20038;-82
2022/07/27 05:00:06;;;;;;;25.15;17.13;;;16.00;99.90;;;;;;10008490;29;20045;-82
2022/07/27 05:05:08;;;;;;;27.35;17.98;;;16.30;99.90;;;;;;9990303;29;20038;-83
2022/07/27 05:10:09;;;;;;;27.40;15.68;;;16.60;99.90;;;;;;10006353;29;20041;-82
2022/07/27 05:15:10;;;;;;;24.00;14.85;;;16.80;99.90;;;;;;10019989;29;20029;-82
2022/07/27 05:20:12;;;;;;;18.63;13.88;;;16.80;99.90;;;;;;10003618;29;20283;-82
2022/07/27 05:25:13;;;;;;;22.10;15.40;;;16.80;99.90;;;;;;10006980;29;20046;-83
2022/07/27 05:30:13;;;;;;;26.85;18.23;;;16.60;99.90;;;;;;10011604;29;20030;-83
2022/07/27 05:35:14;;;;;;;22.10;16.83;;;16.60;99.90;;;;;;10016594;29;20041;-82
2022/07/27 05:40:14;;;;;;;21.60;16.25;;;16.70;99.90;;;;;;10016562;29;20042;-83
2022/07/27 05:45:15;;;;;;;22.77;15.57;;;16.60;99.90;;;;;;10016511;29;20843;-82
2022/07/27 05:50:15;;;;;;;23.58;15.73;;;16.90;99.90;;;;;;10015558;29;20486;-82
2022/07/27 05:55:16;;;;;;;18.23;12.60;;;17.30;99.90;;;;;;10015956;29;20038;-82
2022/07/27 06:00:17;;;;;;;18.55;13.20;;;17.70;99.90;;;;;;10015882;29;20493;-82
2022/07/27 06:05:17;;;;;;;16.85;12.90;;;17.70;99.90;;;;;;10016249;29;20036;-83
2022/07/27 06:10:18;;;;;;;16.50;13.32;;;17.70;99.90;;;;;;10015745;29;20037;-82
2022/07/27 06:15:19;;;;;;;17.25;13.18;;;17.60;99.90;;;;;;10015003;29;20034;-83
2022/07/27 06:20:21;;;;;;;17.38;12.35;;;17.60;99.90;;;;;;10014707;29;20045;-83
2022/07/27 06:25:23;;;;;;;15.98;11.65;;;17.90;99.90;;;;;;10014908;29;20044;-83
2022/07/27 06:30:24;;;;;;;14.10;10.10;;;18.40;99.90;;;;;;10014366;29;20090;-83
2022/07/27 06:35:24;;;;;;;13.43;10.45;;;18.80;99.90;;;;;;10014714;29;20767;-83
2022/07/27 06:40:25;;;;;;;13.48;9.85;;;18.90;99.90;;;;;;9996772;29;20044;-83
2022/07/27 06:45:26;;;;;;;12.07;8.93;;;19.40;99.90;;;;;;10013636;29;20067;-83
2022/07/27 06:50:27;;;;;;;12.60;8.52;;;19.70;99.90;;;;;;10013657;29;20026;-83
2022/07/27 06:55:27;;;;;;;11.43;8.13;;;19.90;99.90;;;;;;10013455;29;20544;-83
2022/07/27 07:00:28;;;;;;;10.27;6.97;;;19.90;99.90;;;;;;10013179;29;20046;-83
2022/07/27 07:05:29;;;;;;;13.20;7.70;;;19.70;99.90;;;;;;10013688;29;20046;-83
2022/07/27 07:10:30;;;;;;;11.90;9.70;;;19.70;99.90;;;;;;10013741;29;20395;-83
2022/07/27 07:15:31;;;;;;;10.73;7.53;;;19.70;99.90;;;;;;10012511;29;20037;-83
2022/07/27 07:20:33;;;;;;;11.30;6.57;;;19.80;99.90;;;;;;9995913;29;20046;-83
2022/07/27 07:25:34;;;;;;;10.02;5.90;;;19.70;99.90;;;;;;10011977;29;20108;-83
2022/07/27 07:30:35;;;;;;;8.57;7.22;;;19.60;99.90;;;;;;10013426;29;20061;-83
2022/07/27 07:35:35;;;;;;;10.65;7.35;;;19.30;99.90;;;;;;10012137;29;20113;-83
2022/07/27 07:40:36;;;;;;;8.30;6.55;;;19.50;99.90;;;;;;10011628;29;20116;-83
2022/07/27 07:45:37;;;;;;;7.50;6.20;;;19.50;99.90;;;;;;10011496;29;20145;-83
2022/07/27 07:50:37;;;;;;;8.82;6.15;;;19.50;99.90;;;;;;10011816;29;20038;-83
2022/07/27 07:55:38;;;;;;;11.50;6.57;;;19.60;99.90;;;;;;10011329;29;20112;-83
2022/07/27 08:00:40;;;;;;;9.18;6.90;;;19.60;99.90;;;;;;10011227;29;20045;-83
2022/07/27 08:17:09;;;;;;;8.48;6.32;;;20.00;99.90;;;;;;10620107;27;20404;-82
2022/07/27 08:22:10;;;;;;;6.60;5.88;;;20.90;99.90;;;;;;10609533;28;20023;-84
2022/07/27 08:27:10;;;;;;;8.05;6.13;;;21.10;99.90;;;;;;10590939;28;20496;-83
2022/07/27 08:32:11;;;;;;;8.57;6.22;;;21.40;99.90;;;;;;10590524;28;20523;-82
2022/07/27 08:37:12;;;;;;;9.32;6.20;;;21.80;99.90;;;;;;10608752;28;20031;-83
2022/07/27 08:42:12;;;;;;;10.27;6.50;;;22.00;99.90;;;;;;10590128;28;20413;-82
2022/07/27 08:47:14;;;;;;;11.10;6.25;;;21.90;99.90;;;;;;10609335;28;20057;-85
2022/07/27 08:52:15;;;;;;;7.40;6.18;;;21.50;99.90;;;;;;10608430;28;20019;-82
2022/07/27 08:57:16;;;;;;;6.80;5.70;;;21.40;99.90;;;;;;10607890;28;20027;-84
2022/07/27 09:02:17;;;;;;;9.80;7.05;;;21.40;99.90;;;;;;10607600;28;20043;-82
2022/07/27 09:07:31;;;;;;;13.82;6.60;;;21.40;99.90;;;;;;10607637;28;20027;-83
2022/07/27 09:12:32;;;;;;;9.95;6.90;;;21.30;99.90;;;;;;10592499;27;20055;-82
2022/07/27 09:17:34;;;;;;;9.52;6.53;;;21.10;99.90;;;;;;10581481;28;20024;-82
2022/07/27 09:22:40;;;;;;;9.70;6.32;;;21.20;99.90;;;;;;10578971;28;20382;-86
2022/07/27 09:27:42;;;;;;;7.07;6.35;;;21.20;99.90;;;;;;10578515;28;20027;-85
2022/07/27 09:32:59;;;;;;;9.82;7.13;;;21.40;99.90;;;;;;10578742;28;20027;-83
2022/07/27 09:38:35;;;;;;;8.85;6.25;;;21.70;99.90;;;;;;10566749;28;20058;-83
2022/07/27 09:43:50;;;;;;;9.77;6.05;;;22.20;99.90;;;;;;10501166;28;20069;-84
2022/07/27 09:48:51;;;;;;;8.73;5.97;;;22.50;99.90;;;;;;10578022;28;20102;-85
2022/07/27 09:53:54;;;;;;;8.32;5.70;;;22.80;99.90;;;;;;10577672;28;20037;-82
2022/07/27 09:59:26;;;;;;;7.72;6.32;;;22.90;99.90;;;;;;10576112;28;20015;-84
2022/07/27 10:04:27;;;;;;;7.97;6.10;;;23.20;99.90;;;;;;10574624;28;20047;-82
2022/07/27 10:10:08;;;;;;;6.28;5.68;;;23.80;99.90;;;;;;10576867;28;20024;-85
2022/07/27 10:15:10;;;;;;;7.70;5.82;;;24.60;99.90;;;;;;10560410;28;20494;-82
2022/07/27 10:20:58;;;;;;;6.20;4.70;;;24.60;99.90;;;;;;10574361;28;20020;-84
2022/07/27 10:26:19;;;;;;;7.35;4.75;;;24.30;99.90;;;;;;10573376;28;20402;-82
2022/07/27 10:31:23;;;;;;;6.30;4.88;;;24.20;99.90;;;;;;10575663;28;20019;-83
2022/07/27 10:36:26;;;;;;;5.80;4.37;;;24.40;99.90;;;;;;10571624;28;20036;-87
2022/07/27 10:41:29;;;;;;;5.47;4.80;;;24.20;99.90;;;;;;10564072;28;20036;-85
2022/07/27 10:46:39;;;;;;;5.43;4.60;;;24.40;99.90;;;;;;10569554;28;20054;-85
2022/07/27 10:51:39;;;;;;;7.20;4.40;;;24.40;99.90;;;;;;10569829;28;20307;-84
2022/07/27 11:03:23;;;;;;;6.15;4.82;;;24.20;99.90;;;;;;10553862;28;20040;-85
2022/07/27 11:08:25;;;;;;;6.80;4.18;;;25.00;99.90;;;;;;10569497;28;20020;-84
2022/07/27 11:13:29;;;;;;;4.35;3.97;;;25.70;99.90;;;;;;10567308;28;20094;-84
2022/07/27 11:18:42;;;;;;;4.03;3.70;;;25.20;99.90;;;;;;10573045;28;20079;-83
2022/07/27 11:23:48;;;;;;;3.80;3.47;;;25.10;99.90;;;;;;10568518;28;20028;-85
2022/07/27 11:28:49;;;;;;;5.35;3.65;;;25.60;99.90;;;;;;10571041;28;20524;-87
2022/07/27 11:33:56;;;;;;;4.32;3.58;;;25.70;99.90;;;;;;10569856;28;20035;-86
2022/07/27 11:38:57;;;;;;;4.40;3.80;;;26.00;99.90;;;;;;10572895;28;20107;-86
2022/07/27 11:44:03;;;;;;;4.70;4.00;;;26.20;99.90;;;;;;10571481;28;20039;-84
2022/07/27 11:49:06;;;;;;;4.32;3.92;;;26.40;99.90;;;;;;10571665;28;20034;-86
2022/07/27 11:54:19;;;;;;;5.55;4.88;;;26.30;99.90;;;;;;10577132;22;20083;-88
2022/07/27 11:59:26;;;;;;;7.28;4.97;;;26.40;99.90;;;;;;10542830;28;20519;-86
2022/07/27 12:05:10;;;;;;;5.50;4.72;;;26.70;99.90;;;;;;10532836;28;20028;-86
2022/07/27 12:10:12;;;;;;;5.55;5.00;;;26.90;99.90;;;;;;10473296;28;20060;-84
2022/07/27 12:15:15;;;;;;;5.35;4.50;;;26.80;99.90;;;;;;10544805;28;20036;-85
2022/07/27 12:20:19;;;;;;;5.32;4.93;;;26.80;99.90;;;;;;10534267;28;20484;-84
2022/07/27 12:25:24;;;;;;;5.15;4.38;;;26.70;99.90;;;;;;10523125;28;20031;-83
2022/07/27 12:36:52;;;;;;;5.40;4.80;;;26.40;99.90;;;;;;10398357;28;20081;-89
2022/07/27 12:42:11;;;;;;;6.57;4.13;;;26.10;99.90;;;;;;10382056;28;20037;-84
2022/07/27 12:52:34;;;;;;;4.25;3.95;;;25.70;99.90;;;;;;10504316;28;20043;-86
2022/07/27 12:57:35;;;;;;;7.20;4.75;;;25.50;99.90;;;;;;10549645;28;20031;-87
2022/07/27 13:02:35;;;;;;;3.90;3.40;;;26.10;97.90;;;;;;10555146;28;20032;-87
2022/07/27 13:07:41;;;;;;;5.15;4.65;;;26.40;96.80;;;;;;10548726;27;20024;-88
2022/07/27 13:12:45;;;;;;;5.05;3.88;;;26.70;93.90;;;;;;10531686;28;20086;-92
2022/07/27 13:17:47;;;;;;;3.55;3.25;;;26.90;93.00;;;;;;10529031;28;20546;-86
2022/07/27 13:23:14;;;;;;;5.38;4.22;;;26.90;91.10;;;;;;10530257;28;20036;-87
2022/07/27 13:28:17;;;;;;;3.75;3.45;;;26.80;92.50;;;;;;10554130;28;20066;-88
2022/07/27 13:33:18;;;;;;;5.93;3.55;;;27.20;88.30;;;;;;10575790;27;20405;-85
2022/07/27 13:38:19;;;;;;;3.78;3.38;;;27.30;88.70;;;;;;10563235;28;20035;-85
2022/07/27 13:43:19;;;;;;;5.35;3.83;;;27.40;89.00;;;;;;10537558;28;20364;-86
2022/07/27 13:48:20;;;;;;;3.58;3.28;;;27.50;90.10;;;;;;10546207;28;20040;-86
2022/07/27 13:53:20;;;;;;;4.10;3.05;;;27.50;88.00;;;;;;10559638;28;20097;-85
2022/07/27 13:58:21;;;;;;;4.22;3.83;;;27.20;85.00;;;;;;10557593;27;20028;-90
2022/07/27 14:03:22;;;;;;;5.45;3.55;;;26.80;88.30;;;;;;10546232;28;20028;-87
2022/07/27 14:08:24;;;;;;;4.40;4.00;;;26.40;84.10;;;;;;10540123;28;20013;-84
2022/07/27 14:13:25;;;;;;;3.63;3.30;;;26.00;87.20;;;;;;10522266;28;20804;-84
2022/07/27 14:18:29;;;;;;;3.67;3.38;;;25.90;83.00;;;;;;10544031;28;20040;-84
2022/07/27 14:23:30;;;;;;;3.50;3.20;;;25.90;85.80;;;;;;10541559;28;20039;-85
2022/07/27 14:28:31;;;;;;;3.65;3.20;;;25.70;85.00;;;;;;10536965;28;20061;-88
2022/07/27 14:33:32;;;;;;;4.78;3.10;;;25.50;83.30;;;;;;10545246;28;20157;-87
2022/07/27 14:38:35;;;;;;;5.80;3.10;;;25.20;82.20;;;;;;10537228;28;20027;-86
2022/07/27 14:43:36;;;;;;;3.33;3.03;;;24.90;83.60;;;;;;10539140;28;20491;-85
2022/07/27 14:48:37;;;;;;;4.55;3.20;;;24.70;87.60;;;;;;10530238;28;20038;-86
2022/07/27 14:53:37;;;;;;;4.93;4.18;;;24.70;82.90;;;;;;10518725;28;20071;-86
2022/07/27 14:58:38;;;;;;;3.35;3.05;;;24.70;83.20;;;;;;10538919;28;20045;-84
2022/07/27 15:03:39;;;;;;;3.92;2.97;;;24.50;83.70;;;;;;10543934;28;20035;-88
2022/07/27 15:09:09;;;;;;;2.80;2.47;;;24.70;85.30;;;;;;10541418;28;20031;-86
2022/07/27 15:14:13;;;;;;;3.08;2.75;;;24.90;85.20;;;;;;10545507;28;20040;-87
2022/07/27 15:19:14;;;;;;;2.90;2.70;;;25.10;81.30;;;;;;10513980;28;20062;-88
2022/07/27 15:25:01;;;;;;;3.92;2.38;;;25.30;83.90;;;;;;10528191;28;20281;-84
2022/07/27 15:29:36;;;;;;;3.97;1.92;;;25.40;81.60;;;;;;10538364;28;20080;-86
2022/07/27 15:34:37;;;;;;;2.15;1.85;;;25.10;83.10;;;;;;10545035;28;20100;-85
2022/07/27 15:39:39;;;;;;;2.72;1.90;;;24.90;84.70;;;;;;10534797;28;20062;-84
2022/07/27 15:44:40;;;;;;;2.15;1.90;;;24.70;84.50;;;;;;10516142;28;20028;-85
2022/07/27 15:49:41;;;;;;;2.08;1.83;;;24.30;86.80;;;;;;10517640;28;20092;-85
2022/07/27 15:54:42;;;;;;;3.50;1.90;;;24.10;87.80;;;;;;10569468;28;20134;-84
2022/07/27 15:59:43;;;;;;;2.03;1.83;;;23.70;86.80;;;;;;10541537;28;20020;-83
2022/07/27 16:04:44;;;;;;;2.38;1.80;;;23.60;90.20;;;;;;10531304;28;20028;-85
2022/07/27 16:09:44;;;;;;;3.85;1.60;;;23.60;89.10;;;;;;10550521;28;20028;-84
2022/07/27 16:14:47;;;;;;;4.45;2.20;;;23.40;88.90;;;;;;10547915;28;20119;-85
2022/07/27 16:19:48;;;;;;;5.13;2.10;;;23.20;90.00;;;;;;10524497;28;20024;-85
2022/07/27 16:24:49;;;;;;;5.13;2.08;;;23.10;90.40;;;;;;10550577;28;20394;-86
2022/07/27 16:29:49;;;;;;;4.00;2.10;;;22.90;90.50;;;;;;10564018;28;20081;-83
2022/07/27 16:34:50;;;;;;;4.75;2.13;;;22.80;91.20;;;;;;10524056;28;20041;-84
2022/07/27 16:39:51;;;;;;;3.58;2.05;;;22.70;91.80;;;;;;10533517;28;20024;-85
2022/07/27 16:44:51;;;;;;;3.30;2.40;;;22.60;92.00;;;;;;10531036;28;20380;-86
2022/07/27 16:49:52;;;;;;;4.30;2.30;;;22.40;92.60;;;;;;10552992;28;20032;-88
2022/07/27 16:54:52;;;;;;;3.78;2.50;;;22.30;92.90;;;;;;10558338;28;20059;-83
2022/07/27 16:59:53;;;;;;;2.45;2.25;;;22.10;93.40;;;;;;10557805;28;20777;-84
2022/07/27 17:04:54;;;;;;;3.42;2.53;;;21.90;94.40;;;;;;10545648;28;20030;-84
2022/07/27 17:09:55;;;;;;;3.47;2.42;;;21.90;95.40;;;;;;10557903;28;20028;-83
2022/07/27 17:14:55;;;;;;;4.43;2.80;;;21.80;96.50;;;;;;10551869;28;20599;-83
2022/07/27 17:19:56;;;;;;;2.70;2.40;;;21.90;96.60;;;;;;10551374;28;20039;-85
2022/07/27 17:24:56;;;;;;;6.82;2.78;;;21.80;97.40;;;;;;10560000;28;20074;-86
2022/07/27 17:29:57;;;;;;;3.38;2.67;;;21.80;97.60;;;;;;10546672;28;20026;-86
2022/07/27 17:34:57;;;;;;;2.85;2.40;;;21.60;98.10;;;;;;10539571;28;20024;-87
2022/07/27 17:39:58;;;;;;;5.68;2.90;;;21.60;98.90;;;;;;10530691;28;20028;-86
2022/07/27 17:44:59;;;;;;;4.13;2.42;;;21.50;99.40;;;;;;10532555;28;20032;-86
2022/07/27 17:49:59;;;;;;;3.42;3.00;;;21.30;99.50;;;;;;10535694;28;20042;-85
2022/07/27 17:55:00;;;;;;;4.65;2.88;;;21.10;99.90;;;;;;10502278;28;20192;-86
2022/07/27 18:00:04;;;;;;;3.38;3.08;;;21.00;99.90;;;;;;10517115;28;20070;-89
2022/07/27 18:05:05;;;;;;;3.45;2.70;;;20.80;99.90;;;;;;10530824;28;20383;-90
2022/07/27 18:10:26;;;;;;;4.05;2.60;;;20.60;99.90;;;;;;10517367;28;20028;-82
2022/07/27 18:20:50;;;;;;;5.53;3.33;;;19.80;99.90;;;;;;10544801;22;20812;-86
2022/07/27 18:25:51;;;;;;;4.40;4.00;;;19.60;99.90;;;;;;10533226;28;20023;-84
2022/07/27 18:30:52;;;;;;;6.85;3.50;;;19.40;99.90;;;;;;10531276;28;20503;-83
2022/07/27 18:35:54;;;;;;;9.27;4.07;;;19.10;99.90;;;;;;10530398;28;20040;-82
2022/07/27 18:40:55;;;;;;;5.45;4.22;;;18.90;99.90;;;;;;10520340;28;20062;-83
2022/07/27 18:45:56;;;;;;;6.22;4.57;;;18.70;99.90;;;;;;10520963;28;20024;-83
2022/07/27 18:50:56;;;;;;;6.85;4.63;;;18.50;99.90;;;;;;10529430;28;20028;-83
2022/07/27 18:55:57;;;;;;;5.18;4.43;;;18.50;99.90;;;;;;10520729;28;20123;-83
2022/07/27 19:00:58;;;;;;;6.43;4.60;;;18.30;99.90;;;;;;10523242;28;20028;-82
2022/07/27 19:05:59;;;;;;;5.75;5.20;;;18.20;99.90;;;;;;10596201;22;20157;-83
2022/07/27 19:10:59;;;;;;;5.60;4.57;;;18.20;99.90;;;;;;10616733;27;20118;-83
2022/07/27 19:16:00;;;;;;;7.07;4.78;;;18.10;99.90;;;;;;10604153;27;20040;-80
2022/07/27 19:21:01;;;;;;;7.80;4.57;;;18.10;99.90;;;;;;10604520;27;20023;-83
2022/07/27 19:26:02;;;;;;;6.93;4.95;;;18.00;99.90;;;;;;10607567;27;20386;-82
2022/07/27 19:31:03;;;;;;;6.60;5.57;;;17.90;99.90;;;;;;10612549;27;20030;-82
2022/07/27 19:36:06;;;;;;;6.63;5.95;;;17.80;99.90;;;;;;10609319;27;20040;-83
2022/07/27 19:41:06;;;;;;;8.57;5.47;;;17.60;99.90;;;;;;10583179;27;20111;-83
2022/07/27 19:46:07;;;;;;;7.47;5.82;;;17.50;99.90;;;;;;10609537;27;20794;-83
2022/07/27 19:51:08;;;;;;;7.63;5.32;;;17.50;99.90;;;;;;10609496;27;20035;-82
2022/07/27 19:56:10;;;;;;;8.30;5.65;;;17.50;99.90;;;;;;10614068;27;20039;-81
2022/07/27 20:01:11;;;;;;;11.90;6.20;;;17.60;99.90;;;;;;10610560;27;20024;-82
2022/07/27 20:06:13;;;;;;;6.95;5.75;;;17.70;99.90;;;;;;10579871;28;20173;-83
2022/07/27 20:11:13;;;;;;;7.32;5.95;;;17.60;99.90;;;;;;10552398;28;20056;-82
2022/07/27 20:16:15;;;;;;;7.10;4.97;;;17.70;99.90;;;;;;10554271;28;20044;-82
2022/07/27 20:21:15;;;;;;;5.68;4.55;;;17.80;99.90;;;;;;10571098;28;20141;-81
2022/07/27 20:26:16;;;;;;;6.90;4.20;;;17.90;99.90;;;;;;10563794;22;20157;-81
2022/07/27 20:31:17;;;;;;;5.43;4.00;;;17.90;99.90;;;;;;10528111;28;20038;-81
2022/07/27 20:36:17;;;;;;;7.63;3.55;;;17.90;99.90;;;;;;10529015;28;20746;-83
2022/07/27 20:41:18;;;;;;;6.32;3.40;;;17.90;99.90;;;;;;10531244;28;20093;-81
2022/07/27 20:46:19;;;;;;;5.55;3.50;;;18.00;99.90;;;;;;10528902;28;20391;-81
2022/07/27 20:51:20;;;;;;;7.10;3.50;;;17.90;99.90;;;;;;10511276;28;20036;-82
2022/07/27 20:56:21;;;;;;;7.93;3.42;;;17.90;99.90;;;;;;10529829;28;20665;-82
2022/07/27 21:01:21;;;;;;;7.15;4.40;;;17.90;99.90;;;;;;10529468;28;20043;-81
2022/07/27 21:06:22;;;;;;;5.32;4.32;;;18.00;99.90;;;;;;10508208;28;20046;-81
2022/07/27 21:11:22;;;;;;;6.95;4.35;;;18.00;99.90;;;;;;10531809;28;20495;-81
2022/07/27 21:22:19;;;;;;;6.47;3.67;;;17.90;99.90;;;;;;10535842;28;20082;-81
2022/07/27 21:27:20;;;;;;;4.47;3.40;;;17.90;99.90;;;;;;10534605;28;20136;-81
2022/07/27 21:32:20;;;;;;;4.25;3.13;;;17.90;99.90;;;;;;10533776;28;20031;-81
2022/07/27 21:37:21;;;;;;;4.93;3.30;;;17.80;99.90;;;;;;10534678;28;20096;-82
2022/07/27 21:54:04;;;;;;;7.40;3.40;;;17.80;99.90;;;;;;10509872;28;20048;-81
2022/07/27 21:59:05;;;;;;;4.95;3.22;;;17.60;99.90;;;;;;10533050;28;20028;-81
2022/07/27 22:04:07;;;;;;;6.45;3.20;;;17.50;99.90;;;;;;10533160;28;20060;-81
2022/07/27 22:09:08;;;;;;;4.22;2.72;;;17.40;99.90;;;;;;10532942;28;20410;-81
2022/07/27 22:14:26;;;;;;;9.27;3.22;;;17.40;99.90;;;;;;10532891;28;20032;-81
2022/07/27 22:19:26;;;;;;;9.93;3.45;;;17.50;99.90;;;;;;10530890;28;20115;-81
2022/07/27 22:24:55;;;;;;;4.20;2.40;;;17.40;99.90;;;;;;10532322;28;20123;-81
2022/07/27 22:29:56;;;;;;;5.78;2.45;;;17.40;99.90;;;;;;10448331;28;20514;-81
2022/07/27 22:34:56;;;;;;;5.57;2.90;;;17.40;99.90;;;;;;10449075;28;20136;-81
2022/07/27 22:39:57;;;;;;;4.60;2.67;;;17.30;99.90;;;;;;10447700;28;20025;-81
2022/07/27 22:44:58;;;;;;;7.68;2.50;;;17.20;99.90;;;;;;10426102;28;20063;-81
2022/07/27 22:49:59;;;;;;;7.63;2.88;;;17.20;99.90;;;;;;10443637;28;20029;-80
2022/07/27 22:55:00;;;;;;;7.35;2.78;;;17.00;99.90;;;;;;10449330;28;20439;-81
2022/07/27 23:00:03;;;;;;;3.85;2.60;;;17.00;99.90;;;;;;10443109;28;20060;-81
2022/07/27 23:05:04;;;;;;;5.47;2.38;;;17.00;99.90;;;;;;10441514;28;20033;-80
2022/07/27 23:10:44;;;;;;;5.53;2.55;;;17.00;99.90;;;;;;10444106;28;20029;-81
2022/07/27 23:15:27;;;;;;;4.78;2.42;;;17.00;99.90;;;;;;10439098;28;20136;-81
2022/07/27 23:20:27;;;;;;;8.18;2.70;;;16.90;99.90;;;;;;10443423;28;20365;-81
2022/07/27 23:25:28;;;;;;;3.92;2.25;;;17.00;99.90;;;;;;10457777;28;20070;-81
2022/07/27 23:30:29;;;;;;;4.38;2.90;;;16.90;99.90;;;;;;10524749;28;20023;-81
2022/07/27 23:35:30;;;;;;;4.95;2.67;;;16.90;99.90;;;;;;10525691;28;20032;-80
2022/07/27 23:40:30;;;;;;;6.13;2.65;;;16.90;99.90;;;;;;10530858;28;20035;-80
2022/07/27 23:45:33;;;;;;;7.90;2.65;;;16.80;99.90;;;;;;10530255;28;20039;-81
2022/07/27 23:50:35;;;;;;;2.38;2.15;;;16.90;99.90;;;;;;10525845;28;20032;-81
2022/07/27 23:55:36;;;;;;;3.95;2.05;;;16.90;99.90;;;;;;10529105;28;20127;-81
